Terminal Aerodrome Forecast
Issued by NWS

Home | Current Version | Previous Version | Text Only | Print | Product List | Glossary On
Versions: 1 2 3 4 5 6 7 8 9 10 11 12 13
942
FTUS45 KPIH 301120
TAFSUN
TAF
KSUN 301120Z 3012/0112 31008KT P6SM SCT040 OVC070
     FM301900 11006KT P6SM VCSH SCT050 BKN100
     FM302000 12010KT P6SM VCTS SCT040CB BKN080
     FM010300 33010KT P6SM SCT050 BKN100
     FM010800 35008KT P6SM SCT050
      AMD LTD TO CLD VIS AND WIND TIL 301400=

USA.gov is the U.S. government's official web portal to all federal, state and local government web resources and services.